• Join FlightAware (Why Join?)
  • Login
  • US Flag 
12:06AM EDT


 

Airport Tracker/Info


-or-


 

Live Flight TrackerFlight Track Log ✈ SKW7367 ✈ 16-Sep-2013 ✈ KDTW - KAPN

Flight Track Log - Related Links

Times and Time Zones

All times are in EDT time to prevent confusion due to time zone crossing. See the SKW7367 flight status page for this flight to view local times or setup timezone preferences in your user account.

Time Position Orientation Groundspeed Altitude Reporting Facility
EDT Latitude Longitude Course Direction KTS MPH feet Rate Location/Type
04:06PM 42.2169 -83.3603 12° North 139 160 1,100  Level Cleveland Center
04:07PM 42.2706 -83.3453 12° North 214 246 4,800 2,820 Climbing Cleveland Center
04:08PM 42.2844 -83.3386 20° North 210 242 5,500 2,880 Climbing Cleveland Center
04:08PM 42.3394 -83.3239 11° North 265 305 7,800 3,000 Climbing Cleveland Center
04:09PM 42.3536 -83.3197 12° North 243 280 8,600 3,420 Climbing Cleveland Center
04:09PM 42.4139 -83.3089 North 267 307 11,300 3,240 Climbing Cleveland Center
04:10PM 42.4444 -83.3103 358° North 275 316 12,000 1,140 Climbing Cleveland Center
04:11PM 42.5275 -83.3189 356° North 299 344 13,000 960 Climbing Cleveland Center
04:12PM 42.6114 -83.3275 356° North 302 348 14,100 960 Climbing Cleveland Center
04:13PM 42.6972 -83.3375 355° North 309 356 15,000 420 Climbing Cleveland Center
04:14PM 42.7828 -83.3492 354° North 310 357 15,000  Level Cleveland Center
04:15PM 42.8667 -83.3594 355° North 304 350 15,000  Level Cleveland Center
04:16PM 42.9664 -83.3664 357° North 300 345 15,000  Level Cleveland Center
04:17PM 43.0489 -83.3672 360° North 296 341 15,000  Level Cleveland Center
04:18PM 43.1147 -83.4264 327° Northwest 294 338 15,000  Level Cleveland Center
04:19PM 43.1689 -83.5111 311° West 296 341 15,000  Level Cleveland Center
04:20PM 43.2228 -83.5947 312° West 295 339 15,000  Level Cleveland Center
04:21PM 43.2869 -83.6917 312° West 288 331 15,000  Level Cleveland Center
04:22PM 43.3417 -83.7775 311° West 296 341 15,000  Level Cleveland Center
04:23PM 43.3953 -83.8633 311° West 296 341 15,000  Level Cleveland Center
04:24PM 43.4500 -83.9478 312° West 296 341 15,000  Level Cleveland Center
04:25PM 43.5075 -84.0372 312° West 296 341 15,000  Level Cleveland Center
04:26PM 43.5811 -84.0567 349° North 292 336 15,000  Level Cleveland Center
04:27PM 43.6614 -84.0317 13° North 294 338 15,000  Level Cleveland Center
04:28PM 43.7581 -84.0011 13° North 297 342 15,000  Level Cleveland Center
04:29PM 43.8375 -83.9747 13° North 296 341 15,000  Level Cleveland Center
04:30PM 43.9172 -83.9467 14° North 296 341 15,000  Level Cleveland Center
04:31PM 43.9967 -83.9214 13° North 295 339 15,000  Level Cleveland Center
04:32PM 44.0775 -83.8942 14° North 297 342 15,000  Level Cleveland Center
04:34PM 44.1589 -83.8661 14° North 301 346 15,000  Level Cleveland Center
04:35PM 44.2558 -83.8347 13° North 299 344 15,000  Level Cleveland Center
04:36PM 44.3375 -83.8067 14° North 300 345 15,000 -360 Level Cleveland Center
04:37PM 44.4178 -83.7797 13° North 299 344 14,300 -1,260 Descending Cleveland Center
04:38PM 44.4944 -83.7561 12° North 290 334 12,400 -1,920 Descending Cleveland Center
04:39PM 44.6175 -83.7106 15° North 282 325 9,500 -1,920 Descending Minneapolis Center
04:40PM 44.6881 -83.6792 18° North 274 315 7,700 -1,740 Descending Minneapolis Center
04:41PM 44.7628 -83.6469 17° North 264 304 6,000 -1,500 Descending Minneapolis Center
04:42PM 44.8267 -83.6186 17° North 251 289 4,600 -1,140 Descending Minneapolis Center
04:43PM 44.8894 -83.5917 17° North 227 261 3,700 -720 Descending Minneapolis Center
04:44PM 44.9381 -83.5703 17° North 196 226 3,200 -600 Descending Minneapolis Center
04:45PM 44.9853 -83.5611 North 163 188 2,500 -720 Descending Minneapolis Center
04:46PM 45.0222 -83.5611 360° North 142 163 1,700 -840 Descending Minneapolis Center
04:47PM 45.0586 -83.5611 360° North 127 146 800 -540 Descending Minneapolis Center
04:48PM 45.0883 -83.5611 360° North 125 144 700 -120 Descending Minneapolis Center